Time;durP1;ratioP1;P1;durP2;ratioP2;P2;SDS_P1;SDS_P2;PMS_P1;PMS_P2;Temp;Humidity;BMP_temperature;BMP_pressure;BME280_temperature;BME280_humidity;BME280_pressure;Samples;Min_cycle;Max_cycle;Signal;HPM_P1;HPM_P2
2022/07/20 00:01:48;;;;;;;2.75;1.10;;;23.40;73.00;;;;;;5094868;27;45412;-72
2022/07/20 00:04:16;;;;;;;1.73;1.23;;;23.40;72.60;;;;;;5095228;27;48135;-72
2022/07/20 00:06:43;;;;;;;1.70;1.10;;;23.50;72.70;;;;;;5090960;27;45505;-72
2022/07/20 00:11:54;;;;;;;1.90;1.13;;;23.40;72.80;;;;;;5098012;27;45353;-72
2022/07/20 00:14:22;;;;;;;1.48;1.00;;;23.50;72.20;;;;;;5092320;27;48104;-72
2022/07/20 00:16:49;;;;;;;1.55;1.20;;;23.50;72.30;;;;;;5093564;27;45333;-72
2022/07/20 00:19:16;;;;;;;1.73;1.17;;;23.50;72.50;;;;;;5088610;27;45401;-72
2022/07/20 00:21:43;;;;;;;1.50;1.10;;;23.50;72.50;;;;;;5096673;27;45280;-72
2022/07/20 00:24:10;;;;;;;2.25;1.13;;;23.50;72.40;;;;;;5094948;27;45644;-72
2022/07/20 00:26:36;;;;;;;2.00;1.20;;;23.50;72.20;;;;;;5089929;27;45768;-72
2022/07/20 00:29:03;;;;;;;1.10;1.00;;;23.50;72.20;;;;;;5094515;27;45371;-72
2022/07/20 00:31:31;;;;;;;2.10;1.20;;;23.50;72.30;;;;;;5093482;27;45569;-72
2022/07/20 00:33:59;;;;;;;1.58;1.08;;;23.40;71.90;;;;;;5098663;27;46770;-73
2022/07/20 00:36:26;;;;;;;1.65;1.00;;;23.50;72.20;;;;;;5095102;27;45386;-72
2022/07/20 00:38:52;;;;;;;1.45;1.15;;;23.50;72.10;;;;;;5097644;27;45387;-71
2022/07/20 00:41:19;;;;;;;1.25;1.02;;;23.40;72.20;;;;;;5101012;27;45383;-72
2022/07/20 00:44:01;;;;;;;1.73;1.35;;;23.40;72.40;;;;;;5094683;27;46631;-72
2022/07/20 00:46:31;;;;;;;2.78;1.00;;;23.40;72.20;;;;;;5095581;27;45331;-72
2022/07/20 00:48:58;;;;;;;1.27;1.10;;;23.40;72.20;;;;;;5101170;27;45477;-72
2022/07/20 00:51:25;;;;;;;1.60;1.20;;;23.40;71.90;;;;;;5104319;27;45438;-72
2022/07/20 00:53:53;;;;;;;2.45;1.17;;;23.40;71.70;;;;;;5097386;27;45403;-72
2022/07/20 00:56:21;;;;;;;3.72;1.55;;;23.40;71.90;;;;;;5093957;27;45336;-72
2022/07/20 00:58:48;;;;;;;1.27;1.00;;;23.40;72.10;;;;;;5097082;27;45389;-72
2022/07/20 01:01:16;;;;;;;2.83;1.20;;;23.40;72.10;;;;;;5095010;27;45587;-72
2022/07/20 01:03:45;;;;;;;3.08;1.17;;;23.40;72.80;;;;;;5093874;27;46305;-72
2022/07/20 01:06:12;;;;;;;3.13;1.30;;;23.40;73.10;;;;;;5095696;27;45530;-72
2022/07/20 01:08:39;;;;;;;1.80;1.20;;;23.40;73.40;;;;;;5097909;27;45471;-72
2022/07/20 01:11:06;;;;;;;2.88;1.20;;;23.40;73.30;;;;;;5099868;27;45380;-72
2022/07/20 01:13:34;;;;;;;1.63;1.13;;;23.40;73.60;;;;;;5101226;27;48023;-73
2022/07/20 01:16:01;;;;;;;3.35;1.23;;;23.40;73.50;;;;;;5090015;27;45337;-72
2022/07/20 01:18:31;;;;;;;3.65;1.13;;;23.40;73.50;;;;;;5087853;27;45423;-77
2022/07/20 01:21:01;;;;;;;5.50;1.60;;;23.40;73.60;;;;;;5091324;27;45396;-71
2022/07/20 01:23:29;;;;;;;4.70;1.83;;;23.40;68.60;;;;;;5105806;27;45387;-71
2022/07/20 01:25:56;;;;;;;9.85;2.20;;;23.40;66.10;;;;;;5105025;27;45238;-71
2022/07/20 01:28:23;;;;;;;6.50;2.20;;;23.40;65.30;;;;;;5097099;27;45660;-70
2022/07/20 01:30:50;;;;;;;3.20;1.80;;;23.50;65.10;;;;;;5095855;27;45364;-70
2022/07/20 01:33:19;;;;;;;3.38;2.00;;;23.50;64.70;;;;;;5101346;27;46059;-71
2022/07/20 01:35:46;;;;;;;5.95;1.95;;;23.50;64.50;;;;;;5091826;27;45679;-71
2022/07/20 01:38:14;;;;;;;5.25;1.80;;;23.50;65.40;;;;;;5106171;27;45312;-70
2022/07/20 01:40:41;;;;;;;6.88;1.95;;;23.50;64.70;;;;;;5103810;27;45431;-70
2022/07/20 01:43:08;;;;;;;5.00;2.13;;;23.50;64.30;;;;;;5105414;27;46339;-71
2022/07/20 01:45:35;;;;;;;7.95;2.08;;;23.50;63.30;;;;;;5098463;27;45374;-70
2022/07/20 01:48:01;;;;;;;4.20;2.00;;;23.50;64.50;;;;;;5104568;27;45380;-71
2022/07/20 01:50:28;;;;;;;4.35;2.08;;;23.50;64.70;;;;;;5096769;27;45391;-72
2022/07/20 01:52:55;;;;;;;5.70;2.22;;;23.50;62.80;;;;;;5094648;27;46605;-71
2022/07/20 01:55:23;;;;;;;4.05;1.90;;;23.50;62.10;;;;;;5101778;27;45245;-70
2022/07/20 01:57:50;;;;;;;4.32;2.20;;;23.50;62.80;;;;;;5102203;27;45287;-72
2022/07/20 02:00:17;;;;;;;6.57;2.25;;;23.50;62.70;;;;;;5096228;27;45490;-71
2022/07/20 02:02:44;;;;;;;3.42;1.90;;;23.50;63.00;;;;;;5102418;27;46339;-71
2022/07/20 02:05:11;;;;;;;2.45;1.88;;;23.40;63.60;;;;;;5103930;27;46019;-71
2022/07/20 02:07:39;;;;;;;5.13;2.00;;;23.50;62.90;;;;;;5104966;27;45373;-71
2022/07/20 02:10:07;;;;;;;4.78;1.90;;;23.50;62.70;;;;;;5099592;27;45600;-70
2022/07/20 02:12:36;;;;;;;2.97;2.00;;;23.50;62.20;;;;;;5100212;27;47095;-71
2022/07/20 02:15:03;;;;;;;2.83;2.10;;;23.50;64.70;;;;;;5103699;27;45515;-71
2022/07/20 02:17:30;;;;;;;4.00;2.13;;;23.50;62.30;;;;;;5105710;27;45280;-71
2022/07/20 02:19:57;;;;;;;5.72;2.05;;;23.50;61.90;;;;;;5101748;27;45549;-71
2022/07/20 02:22:24;;;;;;;3.75;1.75;;;23.50;61.80;;;;;;5099338;27;48605;-71
2022/07/20 02:24:51;;;;;;;4.28;2.15;;;23.50;61.40;;;;;;5100767;27;45355;-71
2022/07/20 02:27:17;;;;;;;4.85;1.77;;;23.50;62.10;;;;;;5097796;27;45290;-71
2022/07/20 02:29:46;;;;;;;3.13;1.60;;;23.50;62.10;;;;;;5100061;27;45378;-71
2022/07/20 02:32:12;;;;;;;4.05;2.08;;;23.50;65.20;;;;;;5094673;27;45396;-70
2022/07/20 02:34:39;;;;;;;6.07;1.92;;;23.50;62.40;;;;;;5104959;27;45503;-71
2022/07/20 02:37:06;;;;;;;5.38;2.03;;;23.50;62.70;;;;;;5103021;27;45307;-71
2022/07/20 02:39:33;;;;;;;7.03;1.83;;;23.40;61.40;;;;;;5103137;27;45301;-70
2022/07/20 02:41:59;;;;;;;3.17;1.63;;;23.50;62.00;;;;;;5104172;27;48704;-71
2022/07/20 02:44:26;;;;;;;3.28;2.00;;;23.50;61.60;;;;;;5103106;27;45703;-70
2022/07/20 02:46:55;;;;;;;8.20;1.90;;;23.50;61.70;;;;;;5101203;27;45418;-71
2022/07/20 02:49:22;;;;;;;3.63;2.30;;;23.40;62.80;;;;;;5104375;27;45442;-71
2022/07/20 02:51:49;;;;;;;3.05;1.90;;;23.40;61.40;;;;;;5102371;27;46636;-71
2022/07/20 02:54:15;;;;;;;3.33;1.95;;;23.40;61.40;;;;;;5102013;27;45296;-72
2022/07/20 02:56:42;;;;;;;5.00;2.17;;;23.40;62.10;;;;;;5103648;27;45446;-70
2022/07/20 02:59:09;;;;;;;2.55;1.90;;;23.40;62.60;;;;;;5088849;27;45376;-71
2022/07/20 03:01:36;;;;;;;4.55;2.10;;;23.40;62.30;;;;;;5102719;27;46607;-71
2022/07/20 03:04:04;;;;;;;2.15;1.77;;;23.40;62.20;;;;;;5103223;27;45585;-70
2022/07/20 03:06:31;;;;;;;4.97;1.70;;;23.40;62.60;;;;;;5097644;27;45404;-71
2022/07/20 03:08:57;;;;;;;3.45;2.00;;;23.40;62.30;;;;;;5101291;27;45354;-71
2022/07/20 03:11:24;;;;;;;2.90;1.90;;;23.30;62.80;;;;;;5100170;27;46163;-70
2022/07/20 03:13:51;;;;;;;3.60;1.95;;;23.30;63.20;;;;;;5093347;27;45359;-71
2022/07/20 03:16:18;;;;;;;4.45;2.15;;;23.30;63.40;;;;;;5099052;27;45328;-71
2022/07/20 03:18:45;;;;;;;2.05;1.70;;;23.30;62.90;;;;;;5100081;27;45407;-71
2022/07/20 03:21:13;;;;;;;6.70;2.30;;;23.30;66.30;;;;;;5100965;27;45352;-71
2022/07/20 03:23:40;;;;;;;8.50;3.25;;;23.30;63.30;;;;;;5102101;27;45347;-70
2022/07/20 03:26:07;;;;;;;4.13;2.05;;;23.30;63.10;;;;;;5104126;27;45291;-72
2022/07/20 03:28:34;;;;;;;4.95;2.08;;;23.30;63.10;;;;;;5100848;27;45372;-73
2022/07/20 03:31:01;;;;;;;3.50;2.28;;;23.30;62.60;;;;;;5103423;27;47669;-70
2022/07/20 03:33:28;;;;;;;5.57;2.33;;;23.30;62.80;;;;;;5092284;27;45806;-71
2022/07/20 03:35:55;;;;;;;3.00;1.83;;;23.30;62.80;;;;;;5092643;27;45538;-70
2022/07/20 03:38:23;;;;;;;2.72;1.90;;;23.30;62.80;;;;;;5097429;27;45377;-71
2022/07/20 03:40:49;;;;;;;6.38;2.00;;;23.30;63.30;;;;;;5102357;27;47662;-70
2022/07/20 03:43:16;;;;;;;3.63;2.00;;;23.30;63.00;;;;;;5102349;27;45419;-71
2022/07/20 03:45:43;;;;;;;4.00;1.88;;;23.30;63.30;;;;;;5102026;27;45294;-72
2022/07/20 03:48:09;;;;;;;3.85;2.10;;;23.30;63.80;;;;;;5100459;27;45373;-70
2022/07/20 03:50:36;;;;;;;4.78;2.20;;;23.30;63.30;;;;;;5098538;27;47515;-70
2022/07/20 03:53:03;;;;;;;3.95;2.13;;;23.30;63.60;;;;;;5101846;27;45273;-71
2022/07/20 03:55:32;;;;;;;5.00;1.90;;;23.20;64.00;;;;;;5103240;27;45361;-70
2022/07/20 03:57:58;;;;;;;6.30;2.20;;;23.20;64.00;;;;;;5085113;27;45342;-71
2022/07/20 04:00:25;;;;;;;4.35;2.20;;;23.20;63.70;;;;;;5096515;27;47495;-71
2022/07/20 04:02:52;;;;;;;6.55;2.30;;;23.20;63.10;;;;;;5101268;27;46033;-70
2022/07/20 04:05:19;;;;;;;3.80;2.42;;;23.20;63.20;;;;;;5099960;27;45488;-72
2022/07/20 04:07:46;;;;;;;6.43;2.30;;;23.10;62.90;;;;;;5099913;27;45599;-70
2022/07/20 04:10:13;;;;;;;8.95;2.70;;;23.10;63.00;;;;;;5100759;27;45889;-71
2022/07/20 04:12:41;;;;;;;7.10;2.40;;;23.10;62.90;;;;;;5100896;27;45515;-71
2022/07/20 04:15:09;;;;;;;6.82;2.72;;;23.10;63.00;;;;;;5102605;27;45359;-71
2022/07/20 04:17:36;;;;;;;8.18;2.40;;;23.20;63.20;;;;;;5101710;27;45407;-71
2022/07/20 04:20:04;;;;;;;5.25;2.22;;;23.20;64.00;;;;;;5102660;27;46618;-71
2022/07/20 04:22:31;;;;;;;10.65;2.63;;;23.20;63.60;;;;;;5101259;27;45396;-71
2022/07/20 04:24:58;;;;;;;10.68;2.80;;;23.20;64.30;;;;;;5102870;27;45366;-71
2022/07/20 04:27:25;;;;;;;5.70;2.17;;;23.20;63.60;;;;;;5099161;27;45345;-71
2022/07/20 04:29:53;;;;;;;6.40;2.80;;;23.20;63.30;;;;;;5100487;27;48024;-70
2022/07/20 04:32:20;;;;;;;10.95;2.40;;;23.20;63.40;;;;;;5103172;27;45421;-70
2022/07/20 04:34:46;;;;;;;7.63;2.30;;;23.20;63.70;;;;;;5101862;27;45416;-71
2022/07/20 04:37:13;;;;;;;10.75;2.67;;;23.20;64.50;;;;;;5103370;27;45395;-71
2022/07/20 04:39:40;;;;;;;7.75;2.80;;;23.20;63.90;;;;;;5102356;27;47026;-71
2022/07/20 04:42:07;;;;;;;7.22;3.33;;;23.20;62.40;;;;;;5097634;27;45331;-71
2022/07/20 04:44:33;;;;;;;7.07;3.45;;;23.30;62.90;;;;;;5101638;27;45457;-71
2022/07/20 04:47:02;;;;;;;7.00;3.78;;;23.30;63.00;;;;;;5099781;27;45462;-71
2022/07/20 04:49:28;;;;;;;12.05;3.95;;;23.30;63.00;;;;;;5101031;27;46631;-71
2022/07/20 04:51:55;;;;;;;9.05;4.38;;;23.40;64.00;;;;;;5099557;27;45313;-70
2022/07/20 04:54:22;;;;;;;11.05;4.55;;;23.40;64.60;;;;;;5102162;27;45347;-70
2022/07/20 04:56:49;;;;;;;11.98;4.32;;;23.40;64.70;;;;;;5091735;27;45343;-71
2022/07/20 04:59:16;;;;;;;10.45;4.20;;;23.40;64.20;;;;;;5098893;27;46381;-71
2022/07/20 05:01:42;;;;;;;9.27;4.90;;;23.40;64.80;;;;;;5094580;27;45312;-70
2022/07/20 05:04:11;;;;;;;18.02;5.28;;;23.40;65.20;;;;;;5103030;27;45452;-70
2022/07/20 05:06:37;;;;;;;10.00;5.47;;;23.40;65.00;;;;;;5095069;27;45575;-70
2022/07/20 05:09:07;;;;;;;16.65;6.00;;;23.40;65.70;;;;;;5101662;27;47081;-70
2022/07/20 05:11:33;;;;;;;7.97;5.45;;;23.40;66.10;;;;;;5096189;27;45415;-71
2022/07/20 05:14:00;;;;;;;10.63;6.90;;;23.40;66.80;;;;;;5093133;27;45416;-71
2022/07/20 05:16:27;;;;;;;10.95;6.43;;;23.40;67.40;;;;;;5095794;27;45399;-70
2022/07/20 05:18:54;;;;;;;15.55;6.50;;;23.40;67.70;;;;;;5104728;27;47130;-70
2022/07/20 05:21:22;;;;;;;10.48;6.35;;;23.40;68.10;;;;;;5099780;27;45512;-71
2022/07/20 05:23:50;;;;;;;15.15;5.97;;;23.50;68.40;;;;;;5102161;27;45448;-71
2022/07/20 05:26:16;;;;;;;9.30;6.05;;;23.50;68.40;;;;;;5105992;27;45396;-70
2022/07/20 05:28:43;;;;;;;16.88;7.13;;;23.50;68.70;;;;;;5101632;27;46633;-71
2022/07/20 05:34:41;;;;;;;11.77;6.70;;;23.50;69.20;;;;;;5091507;27;45281;-70
2022/07/20 05:37:09;;;;;;;12.02;6.32;;;23.50;69.50;;;;;;5101486;27;45667;-71
2022/07/20 05:39:36;;;;;;;13.75;6.70;;;23.50;69.80;;;;;;5100831;27;45349;-70
2022/07/20 05:42:02;;;;;;;9.52;5.82;;;23.50;70.00;;;;;;5088736;27;45412;-71
2022/07/20 05:44:29;;;;;;;9.65;6.10;;;23.50;70.20;;;;;;5097189;27;45272;-71
2022/07/20 05:46:56;;;;;;;14.55;6.50;;;23.50;70.30;;;;;;5090505;27;45256;-70
2022/07/20 05:49:23;;;;;;;14.48;6.57;;;23.50;70.60;;;;;;5095015;27;45918;-71
2022/07/20 05:51:49;;;;;;;9.90;6.38;;;23.50;70.90;;;;;;5103471;27;45482;-71
2022/07/20 05:54:17;;;;;;;13.45;6.90;;;23.50;71.10;;;;;;5104050;27;45346;-71
2022/07/20 05:56:44;;;;;;;9.90;6.50;;;23.50;70.90;;;;;;5104797;27;45197;-70
2022/07/20 05:59:11;;;;;;;14.13;7.78;;;23.50;71.20;;;;;;5102398;27;47535;-70
2022/07/20 06:01:43;;;;;;;11.15;7.45;;;23.50;71.60;;;;;;5091162;27;45350;-70
2022/07/20 06:04:10;;;;;;;10.10;6.50;;;23.50;71.60;;;;;;5094832;27;45277;-71
2022/07/20 06:06:37;;;;;;;17.38;7.95;;;23.50;71.90;;;;;;5103052;27;45672;-71
2022/07/20 06:09:04;;;;;;;9.18;6.50;;;23.50;72.10;;;;;;5104269;27;46303;-71
2022/07/20 06:11:33;;;;;;;12.77;6.45;;;23.50;72.20;;;;;;5099934;27;45462;-70
2022/07/20 06:14:00;;;;;;;12.30;7.15;;;23.50;72.20;;;;;;5103370;27;45424;-71
2022/07/20 06:16:28;;;;;;;10.05;6.55;;;23.50;72.40;;;;;;5101900;27;45506;-70
2022/07/20 06:18:54;;;;;;;9.80;6.63;;;23.50;73.50;;;;;;5103371;27;47191;-70
2022/07/20 06:21:21;;;;;;;12.60;6.90;;;23.50;72.70;;;;;;5102247;27;45656;-71
2022/07/20 06:23:48;;;;;;;9.50;7.00;;;23.50;73.00;;;;;;5091365;27;45480;-71
2022/07/20 06:26:15;;;;;;;12.13;7.70;;;23.50;73.20;;;;;;5100676;27;45611;-70
2022/07/20 06:28:43;;;;;;;13.60;8.15;;;23.50;73.20;;;;;;5101579;27;45466;-70
2022/07/20 06:31:10;;;;;;;10.30;6.85;;;23.50;73.50;;;;;;5103731;27;45311;-70
2022/07/20 06:33:37;;;;;;;13.85;7.72;;;23.50;73.50;;;;;;5089801;27;45493;-71
2022/07/20 06:36:04;;;;;;;11.52;7.47;;;23.50;73.60;;;;;;5103754;27;45363;-70
2022/07/20 06:38:31;;;;;;;12.15;8.18;;;23.50;73.70;;;;;;5103656;27;47713;-71
2022/07/20 06:40:57;;;;;;;15.45;8.07;;;23.50;74.00;;;;;;5103412;27;45495;-70
2022/07/20 06:43:24;;;;;;;14.43;8.00;;;23.50;74.00;;;;;;5102504;27;45382;-70
2022/07/20 06:45:52;;;;;;;14.98;8.15;;;23.50;74.20;;;;;;5102964;27;45443;-71
2022/07/20 06:48:20;;;;;;;9.52;6.93;;;23.50;74.20;;;;;;5099361;27;48062;-70
2022/07/20 06:50:48;;;;;;;18.42;8.38;;;23.50;74.30;;;;;;5104401;27;45256;-70
2022/07/20 06:53:16;;;;;;;9.65;7.53;;;23.50;74.40;;;;;;5098200;27;45425;-71
2022/07/20 06:55:43;;;;;;;14.25;8.77;;;23.50;74.40;;;;;;5101241;27;45559;-70
2022/07/20 06:58:10;;;;;;;14.18;8.43;;;23.50;74.60;;;;;;5094980;27;48213;-71
2022/07/20 07:00:37;;;;;;;12.52;7.90;;;23.50;74.80;;;;;;5098914;27;45469;-70
2022/07/20 07:03:05;;;;;;;14.05;8.32;;;23.50;74.70;;;;;;5102709;27;45351;-71
2022/07/20 07:05:32;;;;;;;17.95;9.65;;;23.50;74.80;;;;;;5099304;27;45436;-70
2022/07/20 07:07:59;;;;;;;13.43;8.77;;;23.60;74.80;;;;;;5095142;27;47536;-70
2022/07/20 07:10:26;;;;;;;15.50;9.15;;;23.50;74.70;;;;;;5101201;27;45413;-70
2022/07/20 07:12:52;;;;;;;15.25;9.38;;;23.60;74.70;;;;;;5102146;27;45392;-70
2022/07/20 07:15:19;;;;;;;17.27;9.55;;;23.60;74.50;;;;;;5097279;27;45542;-72
2022/07/20 07:17:46;;;;;;;12.73;8.68;;;23.60;74.40;;;;;;5102858;27;46305;-71
2022/07/20 07:20:14;;;;;;;13.90;8.57;;;23.60;74.50;;;;;;5103412;27;45686;-70
2022/07/20 07:22:41;;;;;;;11.68;8.18;;;23.60;74.50;;;;;;5100465;27;45387;-71
2022/07/20 07:25:09;;;;;;;15.88;8.75;;;23.60;74.60;;;;;;5094046;27;45256;-70
2022/07/20 07:27:36;;;;;;;15.30;8.25;;;23.60;74.70;;;;;;5096121;27;46621;-72
2022/07/20 07:30:03;;;;;;;12.88;8.38;;;23.60;74.50;;;;;;5102227;27;45485;-70
2022/07/20 07:32:30;;;;;;;13.13;7.70;;;23.60;74.50;;;;;;5112861;27;45486;-71
2022/07/20 07:34:56;;;;;;;18.08;9.05;;;23.60;74.50;;;;;;5102317;27;45325;-70
2022/07/20 07:37:24;;;;;;;12.88;8.93;;;23.60;74.50;;;;;;5100547;27;47565;-70
2022/07/20 07:39:51;;;;;;;12.23;8.40;;;23.60;74.40;;;;;;5098860;27;45272;-70
2022/07/20 07:42:18;;;;;;;15.15;8.88;;;23.60;74.30;;;;;;5100349;27;45439;-72
2022/07/20 07:44:45;;;;;;;14.00;8.52;;;23.70;74.20;;;;;;5103192;27;45470;-71
2022/07/20 07:47:11;;;;;;;14.70;9.10;;;23.60;74.30;;;;;;5098195;27;47696;-70
2022/07/20 07:49:38;;;;;;;13.30;8.77;;;23.60;74.50;;;;;;5101143;27;45388;-70
2022/07/20 07:52:05;;;;;;;14.13;7.78;;;23.60;74.70;;;;;;5101127;27;45394;-71
2022/07/20 07:54:33;;;;;;;14.77;8.98;;;23.70;74.50;;;;;;5102837;27;45388;-71
2022/07/20 07:57:00;;;;;;;12.75;8.18;;;23.60;74.80;;;;;;5092742;27;46619;-72
2022/07/20 07:59:28;;;;;;;11.52;7.80;;;23.70;74.90;;;;;;5097487;27;45272;-71
2022/07/20 08:01:55;;;;;;;15.25;9.00;;;23.70;75.00;;;;;;5089086;27;45372;-71
2022/07/20 08:04:22;;;;;;;12.32;8.60;;;23.70;75.40;;;;;;5094412;27;45324;-70
2022/07/20 08:06:50;;;;;;;13.45;8.68;;;23.70;75.10;;;;;;5096074;27;46612;-71
2022/07/20 08:09:17;;;;;;;13.02;8.40;;;23.70;75.20;;;;;;5101248;27;45335;-70
2022/07/20 08:11:45;;;;;;;12.93;8.88;;;23.70;75.60;;;;;;5097441;27;45371;-70
2022/07/20 08:14:12;;;;;;;17.63;8.70;;;23.70;75.60;;;;;;5101224;27;45510;-70
2022/07/20 08:16:39;;;;;;;20.15;9.32;;;23.70;75.50;;;;;;5098337;27;46298;-71
2022/07/20 08:19:05;;;;;;;14.38;8.63;;;23.70;75.50;;;;;;5101979;27;45397;-73
2022/07/20 08:21:32;;;;;;;15.07;9.32;;;23.70;75.50;;;;;;5096372;27;45528;-70
2022/07/20 08:23:59;;;;;;;14.02;8.98;;;23.70;75.60;;;;;;5101522;27;45573;-70
2022/07/20 08:26:26;;;;;;;14.88;9.40;;;23.70;75.60;;;;;;5089488;27;48538;-70
2022/07/20 08:28:54;;;;;;;13.38;8.68;;;23.70;75.80;;;;;;5098026;27;45442;-70
2022/07/20 08:31:20;;;;;;;12.02;8.13;;;23.70;76.00;;;;;;5098827;27;45298;-70
2022/07/20 08:33:47;;;;;;;13.75;8.68;;;23.70;76.50;;;;;;5103144;27;45252;-71
2022/07/20 08:36:14;;;;;;;15.73;8.75;;;23.70;78.00;;;;;;5087988;27;46282;-70
2022/07/20 08:38:41;;;;;;;16.02;9.32;;;23.70;78.70;;;;;;5097082;27;45338;-71
2022/07/20 08:41:08;;;;;;;18.23;8.43;;;23.70;79.10;;;;;;5089736;27;45415;-72
2022/07/20 08:43:35;;;;;;;12.05;8.50;;;23.70;78.10;;;;;;5089681;27;45708;-70
2022/07/20 08:46:03;;;;;;;16.08;8.05;;;23.70;78.70;;;;;;5082411;27;47514;-70
2022/07/20 08:48:30;;;;;;;11.75;6.97;;;23.70;78.20;;;;;;5084838;27;45493;-71
2022/07/20 08:50:58;;;;;;;10.20;6.30;;;23.70;77.50;;;;;;5095254;27;45341;-70
2022/07/20 08:53:24;;;;;;;9.45;6.45;;;23.70;76.80;;;;;;5091994;27;45581;-70
2022/07/20 08:55:51;;;;;;;11.52;6.82;;;23.70;76.60;;;;;;5094115;27;46611;-71
2022/07/20 08:58:18;;;;;;;9.93;6.90;;;23.70;76.50;;;;;;5098591;27;45731;-71
2022/07/20 09:00:45;;;;;;;12.93;6.68;;;23.70;76.60;;;;;;5102091;27;45472;-70
2022/07/20 09:03:14;;;;;;;8.60;6.22;;;23.70;76.60;;;;;;5099576;27;45417;-70
2022/07/20 09:05:42;;;;;;;10.45;7.15;;;23.70;76.60;;;;;;5103890;27;45464;-70
2022/07/20 09:08:12;;;;;;;12.07;7.45;;;23.70;76.80;;;;;;5091716;27;45846;-70
2022/07/20 09:10:42;;;;;;;7.95;6.00;;;23.70;76.70;;;;;;5102891;27;45490;-71
2022/07/20 09:13:12;;;;;;;10.38;6.93;;;23.70;76.70;;;;;;5093609;27;45443;-70
2022/07/20 09:15:41;;;;;;;9.48;7.03;;;23.70;76.80;;;;;;5095739;27;48222;-70
2022/07/20 09:18:12;;;;;;;11.13;6.97;;;23.70;77.30;;;;;;5098570;27;45390;-71
2022/07/20 09:20:42;;;;;;;11.23;6.65;;;23.70;77.00;;;;;;5098876;27;45342;-70
2022/07/20 09:23:11;;;;;;;10.05;6.60;;;23.70;77.00;;;;;;5098683;27;45407;-69
2022/07/20 09:25:49;;;;;;;12.05;7.13;;;23.70;77.40;;;;;;5106313;27;47447;-71
2022/07/20 09:28:15;;;;;;;10.85;7.05;;;23.70;78.40;;;;;;5098497;27;45439;-70
2022/07/20 09:30:50;;;;;;;13.98;8.15;;;23.70;79.10;;;;;;5102932;27;45248;-70
2022/07/20 09:33:24;;;;;;;13.85;7.35;;;23.70;78.40;;;;;;5093187;27;45503;-70
2022/07/20 09:35:52;;;;;;;10.20;7.60;;;23.70;77.50;;;;;;5092085;27;45536;-70
2022/07/20 09:38:19;;;;;;;10.75;6.93;;;23.70;77.80;;;;;;5100270;27;45457;-70
2022/07/20 09:40:47;;;;;;;11.15;7.03;;;23.70;77.70;;;;;;5102007;27;45339;-70
2022/07/20 09:43:28;;;;;;;11.23;7.13;;;23.70;78.20;;;;;;5098130;27;45517;-70
2022/07/20 09:45:56;;;;;;;9.93;6.50;;;23.70;78.00;;;;;;5089183;27;45524;-71
2022/07/20 09:48:24;;;;;;;9.60;7.18;;;23.70;78.70;;;;;;5101258;27;45468;-69
2022/07/20 09:50:52;;;;;;;10.13;7.03;;;23.70;78.70;;;;;;5092543;27;45575;-71
2022/07/20 09:53:19;;;;;;;12.90;7.22;;;23.70;78.50;;;;;;5100737;27;45339;-70
2022/07/20 09:55:48;;;;;;;10.80;6.78;;;23.70;78.40;;;;;;5099116;27;47888;-70
2022/07/20 09:58:17;;;;;;;13.45;6.80;;;23.70;78.40;;;;;;5093987;27;45399;-70
2022/07/20 10:00:44;;;;;;;10.65;7.65;;;23.70;78.50;;;;;;5090777;27;45376;-70
2022/07/20 10:03:13;;;;;;;11.30;6.95;;;23.80;78.70;;;;;;5090862;27;45307;-70
2022/07/20 10:05:40;;;;;;;11.32;6.82;;;23.70;78.80;;;;;;5097582;27;46333;-70
2022/07/20 10:08:08;;;;;;;12.90;7.20;;;23.70;78.70;;;;;;5099690;27;45463;-71
2022/07/20 10:10:35;;;;;;;9.65;6.90;;;23.70;79.10;;;;;;5096512;27;45356;-70
2022/07/20 10:13:02;;;;;;;10.75;6.35;;;23.70;79.00;;;;;;5090823;27;45324;-70
2022/07/20 10:15:43;;;;;;;10.50;6.60;;;23.70;78.40;;;;;;5095631;27;46189;-70
2022/07/20 10:18:11;;;;;;;9.75;7.00;;;23.70;78.30;;;;;;5095373;27;45263;-72
2022/07/20 10:20:38;;;;;;;12.05;7.38;;;23.70;77.50;;;;;;5089380;27;45484;-72
2022/07/20 10:23:40;;;;;;;11.18;6.35;;;23.70;77.90;;;;;;5102353;27;45410;-71
2022/07/20 10:26:25;;;;;;;7.88;5.47;;;23.80;79.10;;;;;;5091030;27;46264;-71
2022/07/20 10:28:59;;;;;;;9.25;6.35;;;23.70;77.70;;;;;;5101639;27;45384;-70
2022/07/20 10:31:26;;;;;;;8.48;5.40;;;23.80;77.70;;;;;;5090808;27;45612;-71
2022/07/20 10:33:53;;;;;;;8.35;5.80;;;23.70;77.50;;;;;;5095010;27;45472;-71
2022/07/20 10:39:46;;;;;;;7.82;5.78;;;23.70;77.30;;;;;;5101784;27;45340;-71
2022/07/20 10:42:22;;;;;;;9.75;5.57;;;23.70;77.20;;;;;;5098959;27;45458;-72
2022/07/20 10:44:49;;;;;;;7.55;4.80;;;23.70;77.10;;;;;;5097695;27;45430;-72
2022/07/20 10:47:42;;;;;;;8.00;5.20;;;23.70;77.00;;;;;;5097360;27;45468;-71
2022/07/20 10:50:10;;;;;;;6.95;5.65;;;23.70;76.70;;;;;;5095639;27;45670;-71
2022/07/20 10:52:37;;;;;;;7.70;5.43;;;23.70;76.60;;;;;;5097599;27;45429;-71
2022/07/20 10:55:06;;;;;;;8.07;5.28;;;23.70;76.60;;;;;;5096331;27;45410;-71
2022/07/20 10:57:33;;;;;;;7.20;5.20;;;23.70;76.50;;;;;;5092500;27;46547;-73
2022/07/20 11:00:09;;;;;;;9.98;5.60;;;23.80;76.30;;;;;;5101231;27;45197;-72
2022/07/20 11:02:36;;;;;;;8.68;5.03;;;23.80;76.70;;;;;;5089478;27;45466;-72
2022/07/20 11:05:03;;;;;;;10.98;5.28;;;23.80;77.00;;;;;;5097291;27;45402;-71
2022/07/20 11:07:32;;;;;;;9.20;5.47;;;23.80;77.10;;;;;;5088659;27;48079;-73
2022/07/20 11:10:00;;;;;;;7.53;5.30;;;23.80;77.00;;;;;;5089271;27;45420;-72
2022/07/20 11:12:30;;;;;;;10.75;5.55;;;23.80;77.10;;;;;;5093484;27;45435;-72
2022/07/20 11:14:58;;;;;;;8.27;4.82;;;23.70;77.10;;;;;;5096731;27;45418;-72
2022/07/20 11:17:24;;;;;;;10.02;5.18;;;23.80;77.40;;;;;;5103044;27;46295;-72
2022/07/20 11:19:51;;;;;;;11.93;5.25;;;23.70;77.30;;;;;;5096896;27;45468;-72
2022/07/20 11:22:19;;;;;;;9.52;5.25;;;23.70;77.40;;;;;;5095149;27;45513;-72
2022/07/20 11:24:55;;;;;;;6.55;5.05;;;23.80;77.70;;;;;;5090667;27;45553;-72
2022/07/20 11:27:23;;;;;;;8.30;4.78;;;23.70;77.80;;;;;;5087420;27;48847;-73
2022/07/20 11:29:52;;;;;;;8.65;4.43;;;23.70;77.60;;;;;;5089816;27;45381;-72
2022/07/20 11:32:19;;;;;;;7.25;4.78;;;23.70;77.40;;;;;;5103184;27;45612;-73
2022/07/20 11:34:48;;;;;;;12.20;5.18;;;23.70;77.50;;;;;;5102658;27;45358;-72
2022/07/20 11:37:17;;;;;;;7.25;4.80;;;23.70;77.30;;;;;;5101875;27;46579;-72
2022/07/20 11:39:44;;;;;;;6.55;4.88;;;23.70;77.40;;;;;;5083160;28;45536;-73
2022/07/20 11:42:12;;;;;;;8.70;4.90;;;23.70;77.30;;;;;;5083607;28;45435;-73
2022/07/20 11:44:39;;;;;;;8.52;4.90;;;23.70;77.10;;;;;;5084023;27;45308;-72
2022/07/20 11:47:07;;;;;;;6.47;4.55;;;23.70;77.00;;;;;;5081993;28;45305;-73
2022/07/20 11:49:34;;;;;;;7.72;4.65;;;23.70;76.80;;;;;;5082133;28;45368;-72
2022/07/20 11:52:05;;;;;;;5.68;4.40;;;23.70;76.80;;;;;;5081977;28;45399;-72
2022/07/20 11:54:35;;;;;;;7.57;4.78;;;23.70;76.80;;;;;;5083837;28;45343;-72
2022/07/20 11:57:03;;;;;;;6.80;4.28;;;23.70;76.70;;;;;;5082627;28;45885;-73
2022/07/20 11:59:31;;;;;;;5.75;4.53;;;23.70;76.60;;;;;;5081993;28;45378;-72
2022/07/20 12:01:59;;;;;;;6.30;4.40;;;23.70;76.40;;;;;;5083426;27;45456;-73
2022/07/20 12:04:29;;;;;;;5.65;4.05;;;23.70;76.50;;;;;;5087319;27;45292;-73
2022/07/20 12:06:58;;;;;;;4.70;3.78;;;23.70;76.40;;;;;;5100277;27;45237;-73
2022/07/20 12:09:34;;;;;;;4.78;4.03;;;23.70;76.20;;;;;;5098709;27;45461;-72
2022/07/20 12:12:04;;;;;;;7.80;4.53;;;23.70;76.30;;;;;;5101171;27;45364;-72
2022/07/20 12:14:32;;;;;;;4.85;3.90;;;23.70;76.40;;;;;;5094637;27;45467;-73
2022/07/20 12:17:11;;;;;;;5.78;4.32;;;23.70;76.20;;;;;;5088156;27;45255;-72
2022/07/20 12:19:41;;;;;;;6.90;4.22;;;23.70;76.40;;;;;;5095096;27;45414;-72
2022/07/20 12:22:14;;;;;;;4.85;4.00;;;23.70;76.60;;;;;;5100156;27;45293;-72
2022/07/20 12:24:55;;;;;;;5.25;4.18;;;23.70;76.60;;;;;;5095598;27;45536;-72
2022/07/20 12:27:23;;;;;;;6.38;4.00;;;23.70;76.60;;;;;;5097756;27;45430;-72
2022/07/20 12:29:50;;;;;;;5.07;4.00;;;23.70;76.50;;;;;;5103186;27;45423;-72
2022/07/20 12:32:27;;;;;;;4.95;3.72;;;23.70;76.40;;;;;;5103514;27;45244;-73
2022/07/20 12:34:56;;;;;;;4.57;3.80;;;23.70;76.40;;;;;;5081774;27;45284;-72
2022/07/20 12:37:23;;;;;;;5.80;3.67;;;23.70;76.40;;;;;;5084400;27;45583;-72
2022/07/20 12:39:54;;;;;;;6.55;3.97;;;23.70;76.30;;;;;;5100383;27;45282;-72
2022/07/20 12:42:23;;;;;;;4.95;3.95;;;23.70;76.30;;;;;;5103174;27;45470;-72
2022/07/20 12:44:59;;;;;;;5.82;3.80;;;23.70;76.20;;;;;;5103283;27;45486;-72
2022/07/20 12:47:26;;;;;;;12.43;3.90;;;23.70;76.20;;;;;;5102292;27;45459;-72
2022/07/20 12:49:53;;;;;;;4.70;3.72;;;23.70;76.30;;;;;;5102434;27;45418;-72
2022/07/20 12:52:21;;;;;;;5.53;3.95;;;23.70;76.20;;;;;;5103465;27;45314;-72
2022/07/20 12:54:48;;;;;;;4.32;3.92;;;23.70;76.10;;;;;;5086813;27;45459;-73
2022/07/20 12:57:16;;;;;;;5.50;3.85;;;23.70;76.30;;;;;;5103228;27;47036;-73